createdAt,value
2017-08-15T00:00:39.904Z,1018.18
2017-08-15T00:01:49.754Z,1018.17
2017-08-15T00:02:58.638Z,1018.19
2017-08-15T00:04:07.847Z,1018.21
2017-08-15T00:05:17.377Z,1018.18
2017-08-15T00:06:26.584Z,1018.15
2017-08-15T00:07:35.947Z,1018.08
2017-08-15T00:08:45.809Z,1018.08
2017-08-15T00:09:54.696Z,1018.09
2017-08-15T00:11:04.227Z,1018.05
2017-08-15T00:12:13.110Z,1018.07
2017-08-15T00:13:22.468Z,1018.07
2017-08-15T00:14:32.641Z,1018.06
2017-08-15T00:15:41.847Z,1018.06
2017-08-15T00:16:51.052Z,1018.07
2017-08-15T00:18:00.260Z,1018.08
2017-08-15T00:19:09.293Z,1018.05
2017-08-15T00:20:18.528Z,1018.02
2017-08-15T00:21:27.733Z,1017.97
2017-08-15T00:22:36.945Z,1017.98
2017-08-15T00:23:46.800Z,1017.94
2017-08-15T00:24:55.784Z,1017.9
2017-08-15T00:26:04.998Z,1017.95
2017-08-15T00:27:14.854Z,1017.92
2017-08-15T00:28:24.709Z,1017.93
2017-08-15T00:29:33.920Z,1017.93
2017-08-15T00:30:43.123Z,1017.96
2017-08-15T00:31:52.685Z,1017.93
2017-08-15T00:33:02.559Z,1017.88
2017-08-15T00:34:11.763Z,1017.91
2017-08-15T00:35:21.942Z,1017.9
2017-08-15T00:36:30.975Z,1017.97
2017-08-15T00:37:40.186Z,1017.87
2017-08-15T00:38:49.391Z,1017.9
2017-08-15T00:39:58.599Z,1017.93
2017-08-15T00:41:08.130Z,1017.85
2017-08-15T00:42:17.638Z,1017.9
2017-08-15T00:43:26.841Z,1017.85
2017-08-15T00:44:36.698Z,1017.82
2017-08-15T00:45:46.228Z,1017.77
2017-08-15T00:46:55.763Z,1017.71
2017-08-15T00:48:05.345Z,1017.68
2017-08-15T00:49:15.522Z,1017.67
2017-08-15T00:50:25.052Z,1017.64
2017-08-15T00:51:34.903Z,1017.6
2017-08-15T00:52:44.759Z,1017.61
2017-08-15T00:53:54.337Z,1017.61
2017-08-15T00:55:03.544Z,1017.54
2017-08-15T00:56:13.080Z,1017.54
2017-08-15T00:57:22.610Z,1017.55
2017-08-15T00:58:32.133Z,1017.55
2017-08-15T00:59:41.389Z,1017.56
2017-08-15T01:00:50.593Z,1017.53
2017-08-15T01:02:00.156Z,1017.53
2017-08-15T01:03:09.361Z,1017.51
2017-08-15T01:04:18.566Z,1017.51
2017-08-15T01:05:28.100Z,1017.5
2017-08-15T01:06:38.052Z,1017.49
2017-08-15T01:07:47.579Z,1017.52
2017-08-15T01:08:56.782Z,1017.47
2017-08-15T01:10:05.990Z,1017.5
2017-08-15T01:11:15.122Z,1017.45
2017-08-15T01:12:24.016Z,1017.45
2017-08-15T01:13:32.902Z,1017.45
2017-08-15T01:14:41.786Z,1017.43
2017-08-15T01:15:51.315Z,1017.43
2017-08-15T01:17:01.093Z,1017.41
2017-08-15T01:18:10.617Z,1017.41
2017-08-15T01:19:20.143Z,1017.37
2017-08-15T01:20:29.025Z,1017.37
2017-08-15T01:21:38.559Z,1017.36
2017-08-15T01:22:48.070Z,1017.32
2017-08-15T01:23:57.923Z,1017.33
2017-08-15T01:25:07.456Z,1017.33
2017-08-15T01:26:16.663Z,1017.34
2017-08-15T01:27:26.519Z,1017.3
2017-08-15T01:28:36.528Z,1017.33
2017-08-15T01:29:45.738Z,1017.34
2017-08-15T01:30:54.943Z,1017.33
2017-08-15T01:32:04.150Z,1017.34
2017-08-15T01:33:14.336Z,1017.32
2017-08-15T01:34:23.548Z,1017.33
2017-08-15T01:35:32.752Z,1017.31
2017-08-15T01:36:42.280Z,1017.32
2017-08-15T01:37:51.484Z,1017.31
2017-08-15T01:39:01.011Z,1017.32
2017-08-15T01:40:10.541Z,1017.29
2017-08-15T01:41:19.425Z,1017.29
2017-08-15T01:42:28.953Z,1017.28
2017-08-15T01:43:38.207Z,1017.31
2017-08-15T01:44:47.415Z,1017.29
2017-08-15T01:45:57.045Z,1017.28
2017-08-15T01:47:06.906Z,1017.29
2017-08-15T01:48:16.433Z,1017.25
2017-08-15T01:49:25.645Z,1017.21
2017-08-15T01:50:35.498Z,1017.24
2017-08-15T01:51:45.030Z,1017.25
2017-08-15T01:52:54.559Z,1017.27
2017-08-15T01:54:04.088Z,1017.26
2017-08-15T01:55:13.941Z,1017.22
2017-08-15T01:56:23.494Z,1017.2
2017-08-15T01:57:32.752Z,1017.19
2017-08-15T01:58:41.961Z,1017.18
2017-08-15T01:59:51.167Z,1017.16
2017-08-15T02:01:00.697Z,1017.13
2017-08-15T02:02:10.226Z,1017.17
2017-08-15T02:03:19.457Z,1017.15
2017-08-15T02:04:28.992Z,1017.11
2017-08-15T02:05:38.528Z,1017.13
2017-08-15T02:06:48.056Z,1017.1
2017-08-15T02:07:57.261Z,1017.14
2017-08-15T02:09:07.264Z,1017.07
2017-08-15T02:10:16.145Z,1017.11
2017-08-15T02:11:25.347Z,1017.07
2017-08-15T02:12:34.876Z,1017.05
2017-08-15T02:13:43.759Z,1017.06
2017-08-15T02:14:53.065Z,1017.05
2017-08-15T02:16:02.600Z,1017.1
2017-08-15T02:17:11.810Z,1017.13
2017-08-15T02:18:21.013Z,1017.19
2017-08-15T02:19:30.542Z,1017.21
2017-08-15T02:20:40.884Z,1017.23
2017-08-15T02:21:50.416Z,1017.26
2017-08-15T02:22:59.963Z,1017.29
2017-08-15T02:24:09.504Z,1017.27
2017-08-15T02:25:18.391Z,1017.27
2017-08-15T02:26:27.647Z,1017.35
2017-08-15T02:27:36.853Z,1017.32
2017-08-15T02:28:46.057Z,1017.32
2017-08-15T02:29:55.260Z,1017.3
2017-08-15T02:31:04.794Z,1017.34
2017-08-15T02:32:14.149Z,1017.28
2017-08-15T02:33:24.025Z,1017.28
2017-08-15T02:34:33.551Z,1017.24
2017-08-15T02:35:42.759Z,1017.25
2017-08-15T02:36:51.649Z,1017.24
2017-08-15T02:38:01.335Z,1017.16
2017-08-15T02:39:11.205Z,1017.19
2017-08-15T02:40:20.736Z,1017.2
2017-08-15T02:41:29.952Z,1017.16
2017-08-15T02:42:39.171Z,1017.19
2017-08-15T02:43:49.508Z,1017.15
2017-08-15T02:44:58.723Z,1017.12
2017-08-15T02:46:08.249Z,1017.09
2017-08-15T02:47:17.141Z,1017.07
2017-08-15T02:48:26.030Z,1017.07
2017-08-15T02:49:35.811Z,1017.06
2017-08-15T02:50:45.023Z,1017.04
2017-08-15T02:51:54.237Z,1017.06
2017-08-15T02:53:03.772Z,1016.99
2017-08-15T02:54:13.624Z,1017.06
2017-08-15T02:55:23.952Z,1017.02
2017-08-15T02:56:32.834Z,1016.97
2017-08-15T02:57:42.360Z,1017.02
2017-08-15T02:58:51.887Z,1016.96
2017-08-15T03:00:01.424Z,1017.02
2017-08-15T03:01:11.069Z,1016.95
2017-08-15T03:02:20.930Z,1016.96
2017-08-15T03:03:30.136Z,1017
2017-08-15T03:04:39.343Z,1016.96
2017-08-15T03:05:48.873Z,1016.94
2017-08-15T03:06:58.402Z,1016.92
2017-08-15T03:08:07.607Z,1016.95
2017-08-15T03:09:16.815Z,1016.91
2017-08-15T03:10:26.348Z,1016.89
2017-08-15T03:11:35.232Z,1016.93
2017-08-15T03:12:44.815Z,1016.89
2017-08-15T03:13:53.698Z,1016.87
2017-08-15T03:15:02.904Z,1016.85
2017-08-15T03:16:12.114Z,1016.86
2017-08-15T03:17:21.326Z,1016.84
2017-08-15T03:18:31.011Z,1016.83
2017-08-15T03:19:40.221Z,1016.83
2017-08-15T03:20:49.430Z,1016.79
2017-08-15T03:21:58.633Z,1016.76
2017-08-15T03:23:08.168Z,1016.75
2017-08-15T03:24:18.323Z,1016.77
2017-08-15T03:25:28.172Z,1016.67
2017-08-15T03:26:38.033Z,1016.73
2017-08-15T03:27:47.572Z,1016.72
2017-08-15T03:28:56.779Z,1016.72
2017-08-15T03:30:05.991Z,1016.71
2017-08-15T03:31:15.866Z,1016.7
2017-08-15T03:32:25.397Z,1016.72
2017-08-15T03:33:34.610Z,1016.71
2017-08-15T03:34:44.138Z,1016.71
2017-08-15T03:35:53.345Z,1016.68
2017-08-15T03:37:03.200Z,1016.74
2017-08-15T03:38:12.410Z,1016.68
2017-08-15T03:39:21.943Z,1016.7
2017-08-15T03:40:31.156Z,1016.74
2017-08-15T03:41:40.740Z,1016.72
2017-08-15T03:42:49.949Z,1016.75
2017-08-15T03:43:59.801Z,1016.68
2017-08-15T03:45:09.007Z,1016.66
2017-08-15T03:46:18.858Z,1016.63
2017-08-15T03:47:28.119Z,1016.63
2017-08-15T03:48:37.649Z,1016.6
2017-08-15T03:49:46.856Z,1016.59
2017-08-15T03:50:56.064Z,1016.65
2017-08-15T03:52:05.923Z,1016.62
2017-08-15T03:53:15.277Z,1016.57
2017-08-15T03:54:24.483Z,1016.59
2017-08-15T03:55:34.021Z,1016.61
2017-08-15T03:56:43.550Z,1016.61
2017-08-15T03:57:53.403Z,1016.62
2017-08-15T03:59:03.306Z,1016.62
2017-08-15T04:00:13.162Z,1016.58
2017-08-15T04:01:23.018Z,1016.57
2017-08-15T04:02:32.556Z,1016.58
2017-08-15T04:03:42.080Z,1016.58
2017-08-15T04:04:51.611Z,1016.55
2017-08-15T04:06:01.138Z,1016.56
2017-08-15T04:07:10.028Z,1016.56
2017-08-15T04:08:19.560Z,1016.55
2017-08-15T04:09:28.439Z,1016.54
2017-08-15T04:10:37.948Z,1016.53
2017-08-15T04:11:46.832Z,1016.52
2017-08-15T04:12:56.363Z,1016.52
2017-08-15T04:14:06.217Z,1016.52
2017-08-15T04:15:15.740Z,1016.51
2017-08-15T04:16:25.416Z,1016.58
2017-08-15T04:17:34.628Z,1016.6
2017-08-15T04:18:43.833Z,1016.54
2017-08-15T04:19:53.038Z,1016.55
2017-08-15T04:21:02.576Z,1016.57
2017-08-15T04:22:12.212Z,1016.58
2017-08-15T04:23:21.103Z,1016.57
2017-08-15T04:24:30.317Z,1016.59
2017-08-15T04:25:39.204Z,1016.57
2017-08-15T04:26:48.096Z,1016.59
2017-08-15T04:27:57.932Z,1016.55
2017-08-15T04:29:07.142Z,1016.58
2017-08-15T04:30:17.002Z,1016.52
2017-08-15T04:31:26.539Z,1016.57
2017-08-15T04:32:35.426Z,1016.55
2017-08-15T04:33:44.777Z,1016.57
2017-08-15T04:34:53.980Z,1016.58
2017-08-15T04:36:03.187Z,1016.57
2017-08-15T04:37:12.071Z,1016.6
2017-08-15T04:38:21.935Z,1016.56
2017-08-15T04:39:30.968Z,1016.58
2017-08-15T04:40:40.184Z,1016.57
2017-08-15T04:41:49.713Z,1016.59
2017-08-15T04:42:58.917Z,1016.61
2017-08-15T04:44:07.800Z,1016.58
2017-08-15T04:45:17.326Z,1016.6
2017-08-15T04:46:26.865Z,1016.59
2017-08-15T04:47:36.419Z,1016.55
2017-08-15T04:48:45.628Z,1016.53
2017-08-15T04:49:54.537Z,1016.55
2017-08-15T04:51:03.897Z,1016.53
2017-08-15T04:52:13.114Z,1016.54
2017-08-15T04:53:22.321Z,1016.54
2017-08-15T04:54:31.201Z,1016.52
2017-08-15T04:55:40.413Z,1016.52
2017-08-15T04:56:49.942Z,1016.51
2017-08-15T04:57:58.831Z,1016.53
2017-08-15T04:59:08.359Z,1016.52
2017-08-15T05:00:17.660Z,1016.55
2017-08-15T05:01:27.191Z,1016.53
2017-08-15T05:02:36.401Z,1016.46
2017-08-15T05:03:45.618Z,1016.47
2017-08-15T05:04:54.830Z,1016.43
2017-08-15T05:06:04.039Z,1016.42
2017-08-15T05:07:13.724Z,1016.39
2017-08-15T05:08:22.610Z,1016.41
2017-08-15T05:09:31.818Z,1016.38
2017-08-15T05:10:41.028Z,1016.41
2017-08-15T05:11:50.504Z,1016.36
2017-08-15T05:13:00.033Z,1016.34
2017-08-15T05:14:09.892Z,1016.33
2017-08-15T05:15:19.421Z,1016.33
2017-08-15T05:16:28.321Z,1016.33
2017-08-15T05:17:37.208Z,1016.32
2017-08-15T05:18:46.425Z,1016.34
2017-08-15T05:19:55.951Z,1016.38
2017-08-15T05:21:05.819Z,1016.31
2017-08-15T05:22:15.977Z,1016.35
2017-08-15T05:23:25.510Z,1016.35
2017-08-15T05:24:35.366Z,1016.39
2017-08-15T05:25:44.253Z,1016.34
2017-08-15T05:26:53.458Z,1016.33
2017-08-15T05:28:03.140Z,1016.35
2017-08-15T05:29:12.689Z,1016.36
2017-08-15T05:30:22.222Z,1016.36
2017-08-15T05:31:31.111Z,1016.37
2017-08-15T05:32:40.969Z,1016.33
2017-08-15T05:33:50.615Z,1016.33
2017-08-15T05:34:59.818Z,1016.31
2017-08-15T05:36:09.031Z,1016.32
2017-08-15T05:37:18.566Z,1016.32
2017-08-15T05:38:28.095Z,1016.27
2017-08-15T05:39:37.125Z,1016.24
2017-08-15T05:40:46.655Z,1016.24
2017-08-15T05:41:55.538Z,1016.21
2017-08-15T05:43:04.744Z,1016.19
2017-08-15T05:44:13.967Z,1016.2
2017-08-15T05:45:23.644Z,1016.19
2017-08-15T05:46:33.182Z,1016.22
2017-08-15T05:47:43.037Z,1016.21
2017-08-15T05:48:51.920Z,1016.21
2017-08-15T05:50:00.806Z,1016.24
2017-08-15T05:51:10.387Z,1016.28
2017-08-15T05:52:19.594Z,1016.25
2017-08-15T05:53:28.800Z,1016.27
2017-08-15T05:54:37.689Z,1016.2
2017-08-15T05:55:46.897Z,1016.23
2017-08-15T05:56:56.731Z,1016.22
2017-08-15T05:58:05.617Z,1016.22
2017-08-15T05:59:15.148Z,1016.19
2017-08-15T06:00:24.677Z,1016.23
2017-08-15T06:01:33.894Z,1016.25
2017-08-15T06:02:43.209Z,1016.26
2017-08-15T06:03:52.415Z,1016.27
2017-08-15T06:05:01.950Z,1016.26
2017-08-15T06:06:11.804Z,1016.22
2017-08-15T06:07:21.017Z,1016.19
2017-08-15T06:08:30.603Z,1016.16
2017-08-15T06:09:40.141Z,1016.17
2017-08-15T06:10:49.349Z,1016.18
2017-08-15T06:11:58.563Z,1016.16
2017-08-15T06:13:07.456Z,1016.1
2017-08-15T06:14:17.714Z,1016.13
2017-08-15T06:15:26.925Z,1016.09
2017-08-15T06:16:36.134Z,1016.12
2017-08-15T06:17:45.344Z,1016.15
2017-08-15T06:18:54.877Z,1016.16
2017-08-15T06:20:04.458Z,1016.17
2017-08-15T06:21:14.315Z,1016.13
2017-08-15T06:22:23.526Z,1016.17
2017-08-15T06:23:33.378Z,1016.15
2017-08-15T06:24:42.911Z,1016.12
2017-08-15T06:25:52.369Z,1016.17
2017-08-15T06:27:02.221Z,1016.11
2017-08-15T06:28:11.759Z,1016.14
2017-08-15T06:29:21.299Z,1016.18
2017-08-15T06:30:30.831Z,1016.16
2017-08-15T06:31:40.842Z,1016.16
2017-08-15T06:32:50.374Z,1016.18
2017-08-15T06:33:59.904Z,1016.19
2017-08-15T06:35:09.437Z,1016.18
2017-08-15T06:36:18.643Z,1016.18
2017-08-15T06:37:28.493Z,1016.19
2017-08-15T06:38:37.380Z,1016.21
2017-08-15T06:39:46.917Z,1016.18
2017-08-15T06:40:55.813Z,1016.2
2017-08-15T06:42:05.673Z,1016.17
2017-08-15T06:43:15.836Z,1016.2
2017-08-15T06:44:25.051Z,1016.18
2017-08-15T06:45:34.583Z,1016.14
2017-08-15T06:46:44.442Z,1016.2
2017-08-15T06:47:54.618Z,1016.19
2017-08-15T06:49:03.875Z,1016.13
2017-08-15T06:50:13.118Z,1016.17
2017-08-15T06:51:22.328Z,1016.14
2017-08-15T06:52:31.873Z,1016.13
2017-08-15T06:53:41.093Z,1016.12
2017-08-15T06:54:50.350Z,1016.15
2017-08-15T06:55:59.555Z,1016.12
2017-08-15T06:57:09.410Z,1016.16
2017-08-15T06:58:18.626Z,1016.16
2017-08-15T06:59:27.511Z,1016.16
2017-08-15T07:00:36.767Z,1016.14
2017-08-15T07:01:46.309Z,1016.15
2017-08-15T07:02:56.489Z,1016.12
2017-08-15T07:04:06.021Z,1016.15
2017-08-15T07:05:15.557Z,1016.11
2017-08-15T07:06:25.289Z,1016.09
2017-08-15T07:07:34.818Z,1016.1
2017-08-15T07:08:43.702Z,1016.1
2017-08-15T07:09:52.586Z,1016.1
2017-08-15T07:11:02.127Z,1016.05
2017-08-15T07:12:11.068Z,1016.07
2017-08-15T07:13:20.598Z,1016.05
2017-08-15T07:14:29.810Z,1015.98
2017-08-15T07:15:39.348Z,1016.01
2017-08-15T07:16:49.204Z,1015.99
2017-08-15T07:17:58.466Z,1015.97
2017-08-15T07:19:07.998Z,1016
2017-08-15T07:20:16.881Z,1015.97
2017-08-15T07:21:25.769Z,1015.95
2017-08-15T07:22:35.301Z,1015.91
2017-08-15T07:23:44.933Z,1015.88
2017-08-15T07:24:54.468Z,1015.87
2017-08-15T07:26:04.324Z,1015.83
2017-08-15T07:27:14.188Z,1015.77
2017-08-15T07:28:24.046Z,1015.82
2017-08-15T07:29:33.774Z,1015.75
2017-08-15T07:30:42.992Z,1015.76
2017-08-15T07:31:53.172Z,1015.7
2017-08-15T07:33:02.379Z,1015.75
2017-08-15T07:34:11.908Z,1015.73
2017-08-15T07:35:21.121Z,1015.73
2017-08-15T07:36:30.333Z,1015.8
2017-08-15T07:37:40.191Z,1015.79
2017-08-15T07:38:49.402Z,1015.85
2017-08-15T07:39:59.265Z,1015.88
2017-08-15T07:41:08.949Z,1015.97
2017-08-15T07:42:18.156Z,1015.96
2017-08-15T07:43:27.695Z,1015.98
2017-08-15T07:44:37.560Z,1016.06
2017-08-15T07:45:46.777Z,1016.05
2017-08-15T07:46:55.863Z,1016.06
2017-08-15T07:48:05.721Z,1016.08
2017-08-15T07:49:14.610Z,1016.07
2017-08-15T07:50:24.146Z,1016.13
2017-08-15T07:51:33.364Z,1016.11
2017-08-15T07:52:43.116Z,1016.12
2017-08-15T07:53:52.977Z,1016.11
2017-08-15T07:55:02.509Z,1016.15
2017-08-15T07:56:11.725Z,1016.12
2017-08-15T07:57:21.590Z,1016.16
2017-08-15T07:58:30.949Z,1016.23
2017-08-15T07:59:39.833Z,1016.23
2017-08-15T08:00:49.691Z,1016.31
2017-08-15T08:01:59.222Z,1016.3
2017-08-15T08:03:08.438Z,1016.28
2017-08-15T08:04:18.124Z,1016.27
2017-08-15T08:05:27.007Z,1016.26
2017-08-15T08:06:35.894Z,1016.23
2017-08-15T08:07:45.109Z,1016.17
2017-08-15T08:08:54.641Z,1016.13
2017-08-15T08:10:03.583Z,1016.08
2017-08-15T08:11:12.795Z,1016.1
2017-08-15T08:12:22.009Z,1016.1
2017-08-15T08:13:31.221Z,1016.09
2017-08-15T08:14:40.429Z,1016.1
2017-08-15T08:15:49.787Z,1016.08
2017-08-15T08:16:59.327Z,1016.1
2017-08-15T08:18:08.857Z,1016.12
2017-08-15T08:19:17.743Z,1016.1
2017-08-15T08:20:26.626Z,1016.12
2017-08-15T08:21:35.985Z,1016.08
2017-08-15T08:22:45.200Z,1016.06
2017-08-15T08:23:54.733Z,1016.09
2017-08-15T08:25:04.269Z,1016.11
2017-08-15T08:26:13.801Z,1016.11
2017-08-15T08:27:23.269Z,1016.17
2017-08-15T08:28:32.489Z,1016.08
2017-08-15T08:29:41.717Z,1016.14
2017-08-15T08:30:51.252Z,1016.1
2017-08-15T08:32:01.110Z,1016.11
2017-08-15T08:33:10.152Z,1016.04
2017-08-15T08:34:19.684Z,1016.02
2017-08-15T08:35:29.218Z,1016
2017-08-15T08:36:38.437Z,1016.01
2017-08-15T08:37:47.648Z,1016.05
2017-08-15T08:38:57.006Z,1015.99
2017-08-15T08:40:06.223Z,1016.02
2017-08-15T08:41:15.757Z,1015.94
2017-08-15T08:42:25.612Z,1015.87
2017-08-15T08:43:34.834Z,1015.91
2017-08-15T08:44:44.594Z,1015.84
2017-08-15T08:45:53.482Z,1015.83
2017-08-15T08:47:03.018Z,1015.77
2017-08-15T08:48:12.227Z,1015.75
2017-08-15T08:49:21.761Z,1015.74
2017-08-15T08:50:31.122Z,1015.66
2017-08-15T08:51:40.332Z,1015.66
2017-08-15T08:52:49.544Z,1015.62
2017-08-15T08:53:58.753Z,1015.61
2017-08-15T08:55:07.649Z,1015.63
2017-08-15T08:56:17.312Z,1015.6
2017-08-15T08:57:26.851Z,1015.62
2017-08-15T08:58:35.744Z,1015.55
2017-08-15T08:59:44.957Z,1015.5
2017-08-15T09:00:54.497Z,1015.5
2017-08-15T09:02:04.365Z,1015.45
2017-08-15T09:03:13.898Z,1015.48
2017-08-15T09:04:23.458Z,1015.47
2017-08-15T09:05:32.992Z,1015.49
2017-08-15T09:06:41.910Z,1015.49
2017-08-15T09:07:51.780Z,1015.51
2017-08-15T09:09:00.670Z,1015.5
2017-08-15T09:10:09.879Z,1015.5
2017-08-15T09:11:19.739Z,1015.5
2017-08-15T09:12:28.627Z,1015.48
2017-08-15T09:13:38.005Z,1015.52
2017-08-15T09:14:47.867Z,1015.6
2017-08-15T09:15:57.079Z,1015.66
2017-08-15T09:17:06.936Z,1015.7
2017-08-15T09:18:16.480Z,1015.76
2017-08-15T09:19:26.265Z,1015.79
2017-08-15T09:20:35.820Z,1015.84
2017-08-15T09:21:45.678Z,1015.9
2017-08-15T09:22:54.919Z,1015.9
2017-08-15T09:24:04.456Z,1015.9
2017-08-15T09:25:14.190Z,1015.94
2017-08-15T09:26:23.406Z,1015.95
2017-08-15T09:27:33.267Z,1015.94
2017-08-15T09:28:42.803Z,1016
2017-08-15T09:29:52.669Z,1016.02
2017-08-15T09:31:02.862Z,1016.02
2017-08-15T09:32:13.384Z,1016.06
2017-08-15T09:33:22.601Z,1016.04
2017-08-15T09:34:32.783Z,1016.07
2017-08-15T09:35:41.678Z,1016.02
2017-08-15T09:36:51.091Z,1016.09
2017-08-15T09:38:00.632Z,1016.11
2017-08-15T09:39:10.496Z,1016.13
2017-08-15T09:40:19.388Z,1016.13
2017-08-15T09:41:28.929Z,1016.17
2017-08-15T09:42:38.245Z,1016.19
2017-08-15T09:43:47.782Z,1016.25
2017-08-15T09:44:56.995Z,1016.27
2017-08-15T09:46:06.947Z,1016.28
2017-08-15T09:47:16.489Z,1016.31
2017-08-15T09:48:26.279Z,1016.31
2017-08-15T09:49:36.141Z,1016.32
2017-08-15T09:50:45.688Z,1016.33
2017-08-15T09:51:54.906Z,1016.34
2017-08-15T09:53:04.775Z,1016.35
2017-08-15T09:54:14.462Z,1016.29
2017-08-15T09:55:23.360Z,1016.28
2017-08-15T09:56:32.900Z,1016.34
2017-08-15T09:57:41.789Z,1016.28
2017-08-15T09:58:51.650Z,1016.34
2017-08-15T10:00:01.071Z,1016.32
2017-08-15T10:01:11.587Z,1016.31
2017-08-15T10:02:20.479Z,1016.31
2017-08-15T10:03:30.342Z,1016.33
2017-08-15T10:04:40.533Z,1016.29
2017-08-15T10:05:50.698Z,1016.32
2017-08-15T10:07:00.574Z,1016.23
2017-08-15T10:08:09.784Z,1016.28
2017-08-15T10:09:19.337Z,1016.25
2017-08-15T10:10:29.196Z,1016.21
2017-08-15T10:11:38.881Z,1016.19
2017-08-15T10:12:48.749Z,1016.17
2017-08-15T10:13:58.635Z,1016.19
2017-08-15T10:15:08.495Z,1016.2
2017-08-15T10:16:17.753Z,1016.19
2017-08-15T10:17:26.796Z,1016.15
2017-08-15T10:18:36.338Z,1016.16
2017-08-15T10:19:46.201Z,1016.17
2017-08-15T10:20:55.745Z,1016.12
2017-08-15T10:22:05.291Z,1016.17
2017-08-15T10:23:14.485Z,1016.1
2017-08-15T10:24:24.369Z,1016.11
2017-08-15T10:25:33.592Z,1016.06
2017-08-15T10:26:44.114Z,1016.02
2017-08-15T10:27:53.679Z,1015.98
2017-08-15T10:29:03.697Z,1016.05
2017-08-15T10:30:13.238Z,1016.01
2017-08-15T10:31:22.139Z,1016.03
2017-08-15T10:32:31.352Z,1015.98
2017-08-15T10:33:41.216Z,1015.94
2017-08-15T10:34:51.724Z,1015.95
2017-08-15T10:36:01.584Z,1015.88
2017-08-15T10:37:11.127Z,1015.87
2017-08-15T10:38:20.681Z,1015.84
2017-08-15T10:39:30.221Z,1015.76
2017-08-15T10:40:39.910Z,1015.77
2017-08-15T10:41:49.804Z,1015.76
2017-08-15T10:42:59.989Z,1015.73
2017-08-15T10:44:09.851Z,1015.71
2017-08-15T10:45:19.073Z,1015.76
2017-08-15T10:46:28.885Z,1015.74
2017-08-15T10:47:39.078Z,1015.76
2017-08-15T10:48:48.618Z,1015.65
2017-08-15T10:49:58.490Z,1015.7
2017-08-15T10:51:08.352Z,1015.73
2017-08-15T10:52:18.634Z,1015.7
2017-08-15T10:53:28.183Z,1015.68
2017-08-15T10:54:37.721Z,1015.65
2017-08-15T10:55:47.613Z,1015.69
2017-08-15T10:56:57.152Z,1015.69
2017-08-15T10:58:06.994Z,1015.62
2017-08-15T10:59:16.547Z,1015.67
2017-08-15T11:00:26.083Z,1015.65
2017-08-15T11:01:35.622Z,1015.65
2017-08-15T11:02:44.838Z,1015.67
2017-08-15T11:03:54.533Z,1015.62
2017-08-15T11:05:03.754Z,1015.63
2017-08-15T11:06:13.300Z,1015.64
2017-08-15T11:07:22.836Z,1015.59
2017-08-15T11:08:32.054Z,1015.6
2017-08-15T11:09:42.068Z,1015.62
2017-08-15T11:10:51.604Z,1015.63
2017-08-15T11:12:01.145Z,1015.54
2017-08-15T11:13:10.368Z,1015.5
2017-08-15T11:14:19.905Z,1015.46
2017-08-15T11:15:30.199Z,1015.49
2017-08-15T11:16:39.422Z,1015.48
2017-08-15T11:17:48.641Z,1015.52
2017-08-15T11:18:58.503Z,1015.46
2017-08-15T11:20:08.044Z,1015.49
2017-08-15T11:21:18.105Z,1015.5
2017-08-15T11:22:26.999Z,1015.54
2017-08-15T11:23:36.223Z,1015.51
2017-08-15T11:24:46.086Z,1015.5
2017-08-15T11:25:55.305Z,1015.52
2017-08-15T11:27:05.378Z,1015.53
2017-08-15T11:28:14.921Z,1015.47
2017-08-15T11:29:24.136Z,1015.45
2017-08-15T11:30:34.333Z,1015.46
2017-08-15T11:31:44.205Z,1015.43
2017-08-15T11:32:53.621Z,1015.42
2017-08-15T11:34:02.521Z,1015.39
2017-08-15T11:35:12.709Z,1015.36
2017-08-15T11:36:21.924Z,1015.34
2017-08-15T11:37:31.144Z,1015.37
2017-08-15T11:38:40.424Z,1015.38
2017-08-15T11:39:50.609Z,1015.36
2017-08-15T11:41:00.473Z,1015.35
2017-08-15T11:42:10.018Z,1015.31
2017-08-15T11:43:19.877Z,1015.32
2017-08-15T11:44:29.925Z,1015.31
2017-08-15T11:45:39.468Z,1015.34
2017-08-15T11:46:49.337Z,1015.32
2017-08-15T11:47:58.884Z,1015.33
2017-08-15T11:49:08.426Z,1015.29
2017-08-15T11:50:18.068Z,1015.26
2017-08-15T11:51:26.964Z,1015.28
2017-08-15T11:52:36.186Z,1015.26
2017-08-15T11:53:45.088Z,1015.27
2017-08-15T11:54:54.951Z,1015.24
2017-08-15T11:56:04.323Z,1015.23
2017-08-15T11:57:13.221Z,1015.24
2017-08-15T11:58:22.439Z,1015.26
2017-08-15T11:59:31.984Z,1015.23
2017-08-15T12:00:41.521Z,1015.24
2017-08-15T12:01:50.990Z,1015.21
2017-08-15T12:03:01.177Z,1015.24
2017-08-15T12:04:10.716Z,1015.18
2017-08-15T12:05:19.638Z,1015.27
2017-08-15T12:06:28.544Z,1015.25
2017-08-15T12:07:38.243Z,1015.26
2017-08-15T12:08:47.459Z,1015.25
2017-08-15T12:09:57.327Z,1015.29
2017-08-15T12:11:07.193Z,1015.22
2017-08-15T12:12:16.417Z,1015.25
2017-08-15T12:13:25.792Z,1015.24
2017-08-15T12:14:35.007Z,1015.23
2017-08-15T12:15:44.549Z,1015.26
2017-08-15T12:16:53.775Z,1015.28
2017-08-15T12:18:03.963Z,1015.29
2017-08-15T12:19:13.281Z,1015.28
2017-08-15T12:20:22.191Z,1015.31
2017-08-15T12:21:31.736Z,1015.31
2017-08-15T12:22:40.958Z,1015.29
2017-08-15T12:23:50.192Z,1015.29
2017-08-15T12:24:59.739Z,1015.28
2017-08-15T12:26:09.277Z,1015.21
2017-08-15T12:27:18.495Z,1015.18
2017-08-15T12:28:28.039Z,1015.18
2017-08-15T12:29:37.903Z,1015.17
2017-08-15T12:30:47.495Z,1015.15
2017-08-15T12:31:57.034Z,1015.07
2017-08-15T12:33:06.958Z,1015.04
2017-08-15T12:34:16.829Z,1014.98
2017-08-15T12:35:26.696Z,1014.98
2017-08-15T12:36:36.806Z,1014.99
2017-08-15T12:37:46.026Z,1014.99
2017-08-15T12:38:55.894Z,1014.95
2017-08-15T12:40:05.434Z,1015.03
2017-08-15T12:41:15.637Z,1014.98
2017-08-15T12:42:25.230Z,1015.04
2017-08-15T12:43:34.128Z,1015.02
2017-08-15T12:44:43.686Z,1015.04
2017-08-15T12:45:53.231Z,1015.06
2017-08-15T12:47:03.100Z,1015.05
2017-08-15T12:48:12.475Z,1015.03
2017-08-15T12:49:22.344Z,1015.01
2017-08-15T12:50:31.561Z,1014.99
2017-08-15T12:51:41.104Z,1014.96
2017-08-15T12:52:50.644Z,1014.96
2017-08-15T12:54:00.687Z,1014.95
2017-08-15T12:55:10.281Z,1014.91
2017-08-15T12:56:20.700Z,1014.88
2017-08-15T12:57:30.597Z,1014.87
2017-08-15T12:58:40.508Z,1014.89
2017-08-15T12:59:50.249Z,1014.91
2017-08-15T13:00:59.816Z,1014.89
2017-08-15T13:02:09.694Z,1014.88
2017-08-15T13:03:18.595Z,1014.87
2017-08-15T13:04:28.143Z,1014.85
2017-08-15T13:05:37.514Z,1014.83
2017-08-15T13:06:47.059Z,1014.84
2017-08-15T13:07:56.928Z,1014.91
2017-08-15T13:09:06.478Z,1014.92
2017-08-15T13:10:16.028Z,1014.93
2017-08-15T13:11:25.581Z,1014.94
2017-08-15T13:12:35.129Z,1014.88
2017-08-15T13:13:44.677Z,1014.82
2017-08-15T13:14:55.189Z,1014.82
2017-08-15T13:16:05.384Z,1014.88
2017-08-15T13:17:14.601Z,1014.88
2017-08-15T13:18:24.146Z,1014.88
2017-08-15T13:19:34.010Z,1014.84
2017-08-15T13:20:43.882Z,1014.81
2017-08-15T13:21:54.074Z,1014.84
2017-08-15T13:23:03.444Z,1014.86
2017-08-15T13:24:12.665Z,1014.79
2017-08-15T13:25:22.210Z,1014.76
2017-08-15T13:26:31.423Z,1014.73
2017-08-15T13:27:40.641Z,1014.67
2017-08-15T13:28:50.068Z,1014.64
2017-08-15T13:30:00.264Z,1014.68
2017-08-15T13:31:10.133Z,1014.62
2017-08-15T13:32:19.362Z,1014.65
2017-08-15T13:33:28.598Z,1014.66
2017-08-15T13:34:37.865Z,1014.66
2017-08-15T13:35:47.736Z,1014.62
2017-08-15T13:36:57.602Z,1014.65
2017-08-15T13:38:07.169Z,1014.67
2017-08-15T13:39:16.383Z,1014.7
2017-08-15T13:40:26.174Z,1014.62
2017-08-15T13:41:35.730Z,1014.62
2017-08-15T13:42:44.949Z,1014.6
2017-08-15T13:43:54.490Z,1014.57
2017-08-15T13:45:04.042Z,1014.62
2017-08-15T13:46:14.331Z,1014.62
2017-08-15T13:47:23.871Z,1014.61
2017-08-15T13:48:32.769Z,1014.67
2017-08-15T13:49:41.995Z,1014.64
2017-08-15T13:50:51.858Z,1014.71
2017-08-15T13:52:01.905Z,1014.69
2017-08-15T13:53:11.459Z,1014.68
2017-08-15T13:54:20.396Z,1014.67
2017-08-15T13:55:29.949Z,1014.7
2017-08-15T13:56:39.817Z,1014.69
2017-08-15T13:57:49.369Z,1014.66
2017-08-15T13:58:58.595Z,1014.61
2017-08-15T14:00:08.470Z,1014.6
2017-08-15T14:01:17.694Z,1014.63
2017-08-15T14:02:26.917Z,1014.59